Time;durP1;ratioP1;P1;durP2;ratioP2;P2;SDS_P1;SDS_P2;PMS_P1;PMS_P2;Temp;Humidity;BMP_temperature;BMP_pressure;BME280_temperature;BME280_humidity;BME280_pressure;Samples;Min_cycle;Max_cycle;Signal;HPM_P1;HPM_P2
2024/01/25 00:00:46;;;;;;;25.33;7.53;;;;;;;11.55;57.08;102776.16;5004924;28;97030;-70
2024/01/25 00:03:13;;;;;;;25.33;7.75;;;;;;;11.51;56.95;102772.75;5013000;28;97480;-69
2024/01/25 00:05:40;;;;;;;22.40;6.38;;;;;;;11.49;56.70;102777.31;5009672;28;98060;-70
2024/01/25 00:08:07;;;;;;;25.50;6.93;;;;;;;11.48;56.73;102780.06;5008272;27;96874;-69
2024/01/25 00:10:34;;;;;;;27.27;6.85;;;;;;;11.44;56.94;102788.28;5009607;28;97236;-70
2024/01/25 00:13:01;;;;;;;26.15;7.15;;;;;;;11.43;56.93;102783.84;5005090;28;97601;-70
2024/01/25 00:15:28;;;;;;;21.67;6.45;;;;;;;11.41;56.99;102784.84;5004139;27;97624;-70
2024/01/25 00:17:56;;;;;;;26.65;7.40;;;;;;;11.38;56.72;102791.25;5007450;28;96841;-70
2024/01/25 00:20:23;;;;;;;24.48;7.05;;;;;;;11.37;57.01;102783.25;5006379;28;98379;-70
2024/01/25 00:22:50;;;;;;;31.33;6.72;;;;;;;11.33;57.16;102787.88;5004951;27;98211;-70
2024/01/25 00:25:17;;;;;;;31.52;7.65;;;;;;;11.32;56.67;102778.06;5013453;28;97969;-70
2024/01/25 00:27:44;;;;;;;24.20;6.80;;;;;;;11.30;56.97;102776.38;5007983;28;97024;-70
2024/01/25 00:30:11;;;;;;;24.58;7.32;;;;;;;11.27;56.91;102782.75;5041867;27;97127;-70
2024/01/25 00:32:38;;;;;;;23.30;6.65;;;;;;;11.24;56.71;102777.53;5007617;28;98669;-70
2024/01/25 00:35:06;;;;;;;21.40;6.25;;;;;;;11.23;57.00;102788.34;5008714;28;98032;-70
2024/01/25 00:37:33;;;;;;;25.77;6.68;;;;;;;11.21;57.00;102785.72;5007297;28;97575;-71
2024/01/25 00:40:00;;;;;;;32.53;7.75;;;;;;;11.19;57.12;102787.59;5010038;28;97184;-70
2024/01/25 00:42:28;;;;;;;25.58;6.35;;;;;;;11.18;56.86;102793.91;5004374;28;98065;-70
2024/01/25 00:44:55;;;;;;;22.63;5.95;;;;;;;11.17;57.01;102802.94;5008970;28;97869;-70
2024/01/25 00:47:22;;;;;;;23.02;6.72;;;;;;;11.14;56.97;102795.84;5007093;27;97183;-70
2024/01/25 00:49:49;;;;;;;27.23;6.38;;;;;;;11.14;57.02;102792.25;5008542;28;97433;-71
2024/01/25 00:52:16;;;;;;;27.88;7.07;;;;;;;11.12;56.89;102789.63;5006036;28;99955;-70
2024/01/25 00:54:45;;;;;;;25.15;6.57;;;;;;;11.10;56.97;102791.53;5006833;28;98073;-71
2024/01/25 00:57:12;;;;;;;27.88;7.10;;;;;;;11.08;57.03;102795.22;4987128;28;97336;-70
2024/01/25 00:59:40;;;;;;;27.27;6.63;;;;;;;11.07;56.59;102801.53;5008395;28;96962;-70
2024/01/25 01:02:11;;;;;;;25.58;6.88;;;;;;;11.06;56.80;102802.47;5006854;28;97686;-70
2024/01/25 01:04:40;;;;;;;23.45;6.28;;;;;;;11.06;56.97;102807.84;5014114;28;98332;-70
2024/01/25 01:07:14;;;;;;;24.77;6.93;;;;;;;11.07;57.01;102817.66;5011935;28;97427;-70
2024/01/25 01:09:42;;;;;;;27.73;6.97;;;;;;;11.06;57.04;102816.78;5008736;28;96895;-70
2024/01/25 01:12:10;;;;;;;32.97;8.38;;;;;;;11.05;56.96;102814.16;5002288;28;99775;-70
2024/01/25 01:14:37;;;;;;;21.83;6.47;;;;;;;11.03;57.01;102818.72;5012219;28;97544;-70
2024/01/25 01:17:04;;;;;;;28.20;6.40;;;;;;;11.03;56.96;102822.28;5009198;28;97148;-70
2024/01/25 01:19:31;;;;;;;25.88;6.15;;;;;;;11.01;57.25;102824.19;5010312;28;97309;-70
2024/01/25 01:21:58;;;;;;;27.23;6.72;;;;;;;11.01;56.65;102826.88;5009883;28;98281;-70
2024/01/25 01:24:24;;;;;;;25.77;7.00;;;;;;;11.00;57.06;102821.56;5007799;28;97933;-71
2024/01/25 01:26:51;;;;;;;28.77;6.25;;;;;;;10.97;56.86;102827.94;5002852;28;97558;-71
2024/01/25 01:29:18;;;;;;;26.10;6.35;;;;;;;10.95;56.88;102829.81;5011365;28;97344;-70
2024/01/25 01:31:45;;;;;;;20.55;6.47;;;;;;;10.92;56.91;102842.50;5002757;28;97723;-70
2024/01/25 01:34:14;;;;;;;35.58;7.65;;;;;;;10.89;56.89;102834.56;5004837;28;97702;-70
2024/01/25 01:36:41;;;;;;;26.50;6.90;;;;;;;10.86;56.75;102827.50;4990484;28;98149;-70
2024/01/25 01:39:09;;;;;;;28.00;6.55;;;;;;;10.81;56.94;102835.75;5002358;27;97021;-70
2024/01/25 01:41:36;;;;;;;23.73;6.47;;;;;;;10.76;57.12;102839.56;5002841;28;97682;-70
2024/01/25 01:44:02;;;;;;;23.48;6.20;;;;;;;10.70;56.69;102834.44;5009702;28;97441;-70
2024/01/25 01:46:37;;;;;;;23.15;6.55;;;;;;;10.65;56.85;102844.47;5005889;28;96754;-70
2024/01/25 01:49:04;;;;;;;24.77;5.90;;;;;;;10.63;57.11;102847.22;5002438;28;101262;-70
2024/01/25 01:51:32;;;;;;;27.65;6.22;;;;;;;10.60;57.05;102849.16;5004713;28;97521;-71
2024/01/25 01:54:01;;;;;;;24.90;5.95;;;;;;;10.59;57.00;102858.16;5005429;28;98266;-71
2024/01/25 01:56:31;;;;;;;27.98;6.78;;;;;;;10.56;57.03;102848.41;5009521;28;97187;-70
2024/01/25 01:59:00;;;;;;;26.77;7.07;;;;;;;10.53;57.33;102848.53;5008407;28;98332;-70
2024/01/25 02:01:28;;;;;;;37.78;7.47;;;;;;;10.50;57.15;102846.84;5007044;28;97484;-71
2024/01/25 02:03:56;;;;;;;25.58;7.32;;;;;;;10.48;57.38;102853.22;5006089;28;101555;-71
2024/01/25 02:06:26;;;;;;;24.60;6.15;;;;;;;10.46;57.10;102864.00;5005162;27;97263;-70
2024/01/25 02:08:53;;;;;;;31.30;7.20;;;;;;;10.46;57.14;102857.75;5008348;28;97258;-70
2024/01/25 02:11:20;;;;;;;30.02;6.25;;;;;;;10.44;57.24;102873.94;5009684;28;98427;-70
2024/01/25 02:13:47;;;;;;;21.05;6.25;;;;;;;10.43;57.59;102879.38;5006434;28;97569;-70
2024/01/25 02:16:17;;;;;;;23.02;6.13;;;;;;;10.41;57.43;102883.94;5012026;28;97313;-70
2024/01/25 02:18:45;;;;;;;26.83;7.13;;;;;;;10.39;57.18;102888.44;5007558;28;97258;-69
2024/01/25 02:21:11;;;;;;;28.85;7.10;;;;;;;10.38;57.67;102882.19;5012560;28;97818;-70
2024/01/25 02:23:39;;;;;;;35.83;8.10;;;;;;;10.38;57.50;102882.19;5014039;28;97937;-70
2024/01/25 02:26:05;;;;;;;25.73;6.43;;;;;;;10.37;57.33;102879.56;5008582;28;97188;-69
2024/01/25 02:28:32;;;;;;;26.15;6.47;;;;;;;10.34;57.50;102872.50;5010932;28;97804;-70
2024/01/25 02:31:01;;;;;;;27.60;6.60;;;;;;;10.32;57.38;102877.06;5007242;28;97709;-70
2024/01/25 02:33:28;;;;;;;32.80;7.28;;;;;;;10.31;57.50;102887.84;5007967;28;97563;-70
2024/01/25 02:35:54;;;;;;;27.17;6.25;;;;;;;10.29;57.46;102889.72;5015127;28;97713;-70
2024/01/25 02:38:21;;;;;;;30.80;6.68;;;;;;;10.27;57.34;102888.91;5014364;28;97202;-70
2024/01/25 02:40:48;;;;;;;31.13;6.07;;;;;;;10.24;57.37;102891.72;5014964;28;98044;-70
2024/01/25 02:43:14;;;;;;;28.90;5.90;;;;;;;10.21;57.45;102891.81;5009788;27;97454;-70
2024/01/25 02:45:42;;;;;;;26.88;6.35;;;;;;;10.19;57.63;102894.53;5004736;28;97924;-70
2024/01/25 02:48:09;;;;;;;25.98;6.10;;;;;;;10.17;57.51;102899.94;5013121;28;97235;-70
2024/01/25 02:50:36;;;;;;;27.60;6.78;;;;;;;10.17;57.73;102899.06;5017428;27;97553;-71
2024/01/25 02:53:07;;;;;;;24.13;6.72;;;;;;;10.16;57.57;102905.38;5040833;27;99457;-70
2024/01/25 02:55:36;;;;;;;32.55;7.07;;;;;;;10.15;57.68;102906.31;5011634;28;96930;-70
2024/01/25 02:58:03;;;;;;;30.88;7.57;;;;;;;10.13;57.60;102895.63;5012126;28;97478;-70
2024/01/25 03:00:30;;;;;;;32.38;6.82;;;;;;;10.12;57.60;102901.06;5012360;27;97401;-70
2024/01/25 03:02:57;;;;;;;26.52;7.20;;;;;;;10.08;57.64;102894.91;5008779;28;97536;-70
2024/01/25 03:05:24;;;;;;;31.50;7.32;;;;;;;10.03;57.83;102894.22;5009970;28;97227;-70
2024/01/25 03:07:51;;;;;;;33.85;6.70;;;;;;;9.99;57.80;102894.38;5008942;28;97283;-70
2024/01/25 03:10:18;;;;;;;25.98;6.28;;;;;;;9.95;57.62;102898.97;5005768;27;97984;-70
2024/01/25 03:12:45;;;;;;;28.67;6.70;;;;;;;9.93;57.95;102889.22;5008808;28;97704;-69
2024/01/25 03:15:12;;;;;;;24.00;6.88;;;;;;;9.90;57.65;102887.53;5006891;28;99373;-69
2024/01/25 03:17:38;;;;;;;30.38;6.50;;;;;;;9.89;57.87;102896.50;5014249;28;97454;-69
2024/01/25 03:20:06;;;;;;;26.52;6.47;;;;;;;9.87;57.93;102893.88;5012850;28;98257;-69
2024/01/25 03:22:33;;;;;;;29.63;6.68;;;;;;;9.86;57.88;102899.31;5012554;27;97550;-70
2024/01/25 03:25:00;;;;;;;29.88;7.38;;;;;;;9.84;58.16;102902.03;5008859;28;97288;-70
2024/01/25 03:27:26;;;;;;;29.77;7.13;;;;;;;9.84;57.88;102895.81;5009154;28;97390;-70
2024/01/25 03:29:53;;;;;;;30.35;7.20;;;;;;;9.83;58.13;102896.72;5005175;28;97648;-70
2024/01/25 03:32:20;;;;;;;28.98;6.65;;;;;;;9.82;58.02;102903.91;5011241;28;97552;-70
2024/01/25 03:34:46;;;;;;;25.02;6.28;;;;;;;9.82;58.09;102894.97;5009014;28;97346;-69
2024/01/25 03:37:14;;;;;;;33.50;6.72;;;;;;;9.79;58.20;102904.03;5004231;28;97766;-69
2024/01/25 03:39:40;;;;;;;28.90;7.75;;;;;;;9.78;58.12;102887.97;5009297;28;97412;-70
2024/01/25 03:42:07;;;;;;;29.75;7.00;;;;;;;9.77;58.10;102905.00;5010777;28;100126;-69
2024/01/25 03:44:34;;;;;;;28.35;6.28;;;;;;;9.75;58.28;102896.13;5014740;28;97355;-69
2024/01/25 03:47:00;;;;;;;27.77;6.68;;;;;;;9.74;58.15;102899.75;5009906;28;97581;-70
2024/01/25 03:49:27;;;;;;;25.83;7.00;;;;;;;9.70;58.08;102893.59;5001115;28;97907;-69
2024/01/25 03:51:54;;;;;;;30.33;6.40;;;;;;;9.69;58.06;102899.91;5007920;28;97952;-70
2024/01/25 03:54:21;;;;;;;26.92;6.25;;;;;;;9.68;58.30;102894.59;5010641;28;97099;-70
2024/01/25 03:56:47;;;;;;;32.58;7.32;;;;;;;9.67;58.07;102898.19;5010436;28;97210;-70
2024/01/25 03:59:14;;;;;;;31.30;8.75;;;;;;;9.65;58.19;102889.28;5004472;28;97493;-69
2024/01/25 04:01:46;;;;;;;23.23;6.53;;;;;;;9.62;58.42;102884.91;5009019;28;97978;-70
2024/01/25 04:04:17;;;;;;;26.98;6.57;;;;;;;9.59;58.37;102882.34;5005745;28;97096;-69
2024/01/25 04:06:47;;;;;;;27.77;5.40;;;;;;;9.58;58.14;102891.31;5005628;28;97480;-70
2024/01/25 04:09:15;;;;;;;26.73;6.05;;;;;;;9.57;58.21;102895.81;5008411;28;97418;-70
2024/01/25 04:11:41;;;;;;;25.15;6.43;;;;;;;9.55;58.25;102902.16;5008908;28;97652;-70
2024/01/25 04:14:10;;;;;;;26.85;7.43;;;;;;;9.53;58.35;102896.84;5008686;28;97057;-70
2024/01/25 04:16:36;;;;;;;25.13;6.65;;;;;;;9.53;58.13;102898.66;5010476;28;97234;-70
2024/01/25 04:19:04;;;;;;;29.92;6.05;;;;;;;9.52;58.49;102896.88;5009244;28;97816;-70
2024/01/25 04:21:30;;;;;;;26.42;6.18;;;;;;;9.52;58.35;102892.41;5006391;28;97783;-70
2024/01/25 04:23:57;;;;;;;35.88;6.68;;;;;;;9.50;58.43;102894.25;5004508;28;96994;-70
2024/01/25 04:26:24;;;;;;;30.67;6.90;;;;;;;9.48;58.21;102892.56;5012303;28;98073;-70
2024/01/25 04:28:51;;;;;;;18.77;6.55;;;;;;;9.47;58.40;102901.53;5007385;28;97425;-70
2024/01/25 04:31:17;;;;;;;26.10;6.80;;;;;;;9.44;58.29;102899.84;5005727;28;97612;-70
2024/01/25 04:33:44;;;;;;;27.45;5.65;;;;;;;9.43;58.34;102897.19;5006530;28;97584;-69
2024/01/25 04:36:15;;;;;;;24.73;6.65;;;;;;;9.36;58.35;102911.75;5006741;27;97101;-69
2024/01/25 04:38:41;;;;;;;24.25;6.05;;;;;;;9.30;58.32;102910.13;4988140;28;99922;-70
2024/01/25 04:41:09;;;;;;;26.77;6.00;;;;;;;9.26;58.17;102905.81;5002754;28;98446;-70
2024/01/25 04:43:38;;;;;;;27.02;6.25;;;;;;;9.24;58.40;102907.66;5002858;28;97093;-70
2024/01/25 04:46:05;;;;;;;28.67;6.65;;;;;;;9.21;58.37;102899.72;5010562;28;97394;-70
2024/01/25 04:48:32;;;;;;;23.08;7.70;;;;;;;9.20;58.33;102901.53;5012812;28;97588;-70
2024/01/25 04:50:59;;;;;;;20.95;6.40;;;;;;;9.15;58.39;102906.16;5014144;28;98294;-70
2024/01/25 04:53:26;;;;;;;25.50;6.55;;;;;;;9.10;58.28;102908.09;5008529;27;97018;-70
2024/01/25 04:55:54;;;;;;;30.17;7.93;;;;;;;9.06;57.98;102909.13;5007883;28;97996;-70
2024/01/25 04:58:21;;;;;;;24.35;6.40;;;;;;;9.00;58.15;102901.28;5003277;28;98594;-70
2024/01/25 05:00:50;;;;;;;28.92;6.70;;;;;;;8.97;58.14;102916.59;5003292;28;98464;-70
2024/01/25 05:03:17;;;;;;;30.77;6.93;;;;;;;8.93;58.29;102921.16;5001532;27;97202;-70
2024/01/25 05:05:44;;;;;;;32.08;6.90;;;;;;;8.91;58.48;102918.50;4998564;28;97622;-70
2024/01/25 05:08:11;;;;;;;28.20;7.40;;;;;;;8.89;58.65;102923.03;5011784;28;97583;-70
2024/01/25 05:10:38;;;;;;;17.45;6.13;;;;;;;8.88;58.41;102912.38;5007467;27;97744;-70
2024/01/25 05:13:04;;;;;;;21.80;5.50;;;;;;;8.86;58.36;102906.19;5012122;28;97029;-69
2024/01/25 05:15:31;;;;;;;24.15;6.10;;;;;;;8.85;58.49;102915.13;5005346;28;97119;-70
2024/01/25 05:17:58;;;;;;;27.75;5.95;;;;;;;8.84;58.63;102922.28;5011756;28;97742;-70
2024/01/25 05:20:31;;;;;;;29.83;6.38;;;;;;;8.82;58.41;102916.09;5008109;28;97870;-69
2024/01/25 05:23:00;;;;;;;30.52;7.32;;;;;;;8.79;58.45;102913.53;5010512;27;97464;-70
2024/01/25 05:25:27;;;;;;;33.20;6.85;;;;;;;8.78;58.17;102902.84;5008324;28;97164;-70
2024/01/25 05:27:55;;;;;;;20.25;7.07;;;;;;;8.74;58.48;102904.75;5007208;28;99690;-70
2024/01/25 05:30:22;;;;;;;18.30;5.13;;;;;;;8.72;58.39;102911.09;4999926;28;98020;-70
2024/01/25 05:32:49;;;;;;;23.70;6.40;;;;;;;8.70;58.51;102919.16;5001780;28;96941;-69
2024/01/25 05:35:17;;;;;;;32.03;7.75;;;;;;;8.67;58.56;102918.38;4994778;28;96943;-69
2024/01/25 05:37:44;;;;;;;27.20;7.30;;;;;;;8.65;58.59;102918.44;5004889;28;97495;-70
2024/01/25 05:40:11;;;;;;;25.08;7.38;;;;;;;8.65;58.70;102925.59;5001582;28;100121;-70
2024/01/25 05:42:40;;;;;;;28.13;7.57;;;;;;;8.64;58.63;102924.69;4997000;28;97549;-69
2024/01/25 05:45:08;;;;;;;39.13;7.07;;;;;;;8.64;58.78;102934.53;5008244;28;97113;-69
2024/01/25 05:47:35;;;;;;;29.02;7.10;;;;;;;8.64;58.89;102929.19;4997666;28;97625;-69
2024/01/25 05:50:04;;;;;;;26.35;6.70;;;;;;;8.67;59.10;102929.09;5006107;28;97740;-70
2024/01/25 05:52:31;;;;;;;35.95;7.53;;;;;;;8.67;58.96;102935.31;5009197;28;97258;-70
2024/01/25 05:54:59;;;;;;;40.67;7.32;;;;;;;8.66;58.84;102943.41;5016662;28;97651;-70
2024/01/25 05:57:31;;;;;;;26.92;7.28;;;;;;;8.65;58.82;102947.00;5006059;28;99560;-70
2024/01/25 05:59:59;;;;;;;27.70;7.13;;;;;;;8.64;58.82;102940.78;5000785;28;98349;-69
2024/01/25 06:02:26;;;;;;;30.58;7.10;;;;;;;8.62;58.89;102947.97;5003560;28;97433;-70
2024/01/25 06:04:53;;;;;;;31.25;7.03;;;;;;;8.61;58.89;102946.22;5004663;28;97243;-70
2024/01/25 06:07:20;;;;;;;31.10;7.47;;;;;;;8.57;58.79;102949.91;5006802;27;97781;-70
2024/01/25 06:09:47;;;;;;;38.53;7.72;;;;;;;8.56;58.82;102945.47;5005229;28;97525;-70
2024/01/25 06:12:14;;;;;;;29.67;7.13;;;;;;;8.55;59.06;102935.69;5011449;28;98105;-69
2024/01/25 06:14:41;;;;;;;27.40;7.03;;;;;;;8.50;58.88;102946.53;5008853;28;96988;-70
2024/01/25 06:17:07;;;;;;;28.15;7.30;;;;;;;8.49;58.98;102951.94;4999863;27;97056;-70
2024/01/25 06:19:34;;;;;;;29.98;7.10;;;;;;;8.47;58.98;102951.09;5005073;28;98203;-69
2024/01/25 06:22:02;;;;;;;29.40;7.88;;;;;;;8.46;58.84;102962.75;5009663;28;97109;-70
2024/01/25 06:24:30;;;;;;;33.63;6.75;;;;;;;8.44;59.11;102962.78;5006895;28;97095;-70
2024/01/25 06:26:57;;;;;;;30.25;6.32;;;;;;;8.43;59.02;102965.50;5003969;28;97729;-70
2024/01/25 06:29:24;;;;;;;21.80;6.25;;;;;;;8.40;59.02;102962.91;4995620;28;97955;-70
2024/01/25 06:31:51;;;;;;;33.15;6.80;;;;;;;8.37;58.76;102969.22;4998847;28;97213;-70
2024/01/25 06:34:18;;;;;;;23.92;5.75;;;;;;;8.36;58.99;102969.28;5003308;28;97247;-69
2024/01/25 06:36:45;;;;;;;30.88;7.68;;;;;;;8.34;58.94;102965.75;4996966;28;98430;-69
2024/01/25 06:39:11;;;;;;;31.65;6.45;;;;;;;8.32;59.01;102971.13;5008040;28;98316;-70
2024/01/25 06:41:38;;;;;;;29.63;8.02;;;;;;;8.29;58.98;102974.75;4995776;28;97239;-69
2024/01/25 06:44:05;;;;;;;28.38;7.15;;;;;;;8.28;59.04;102970.34;4998727;28;97737;-69
2024/01/25 06:46:32;;;;;;;38.47;8.52;;;;;;;8.29;59.12;102972.09;4995363;28;97591;-70
2024/01/25 06:48:59;;;;;;;33.33;8.07;;;;;;;8.32;59.13;102978.28;5002583;28;98874;-70
2024/01/25 06:51:26;;;;;;;27.73;7.00;;;;;;;8.34;59.32;102974.69;4998382;28;97290;-69
2024/01/25 06:53:53;;;;;;;26.08;8.27;;;;;;;8.36;59.45;102975.50;4995254;28;97455;-70
2024/01/25 06:56:20;;;;;;;39.35;7.80;;;;;;;8.38;59.26;102973.66;4995267;28;97709;-70
2024/01/25 06:58:47;;;;;;;34.67;8.23;;;;;;;8.39;59.57;102964.72;4988303;28;97589;-70
2024/01/25 07:01:20;;;;;;;34.47;8.18;;;;;;;8.41;59.52;102975.38;4986290;28;98133;-69
2024/01/25 07:03:47;;;;;;;26.48;7.70;;;;;;;8.43;59.45;102974.41;4985764;28;97273;-71
2024/01/25 07:06:19;;;;;;;39.40;7.53;;;;;;;8.46;59.69;102973.44;4989605;28;97578;-69
2024/01/25 07:08:46;;;;;;;32.13;8.85;;;;;;;8.48;59.87;102966.25;4994227;28;98257;-70
2024/01/25 07:11:13;;;;;;;31.73;8.10;;;;;;;8.50;59.40;102959.06;4992731;28;97148;-70
2024/01/25 07:13:44;;;;;;;25.25;7.78;;;;;;;8.51;59.64;102963.47;5005270;28;97083;-69
2024/01/25 07:16:11;;;;;;;27.70;8.10;;;;;;;8.53;59.52;102958.97;5002973;28;100206;-69
2024/01/25 07:18:38;;;;;;;32.78;8.00;;;;;;;8.53;59.53;102956.28;4992708;28;98008;-69
2024/01/25 07:21:05;;;;;;;34.03;7.55;;;;;;;8.54;59.56;102958.91;4985188;28;97252;-69
2024/01/25 07:23:34;;;;;;;29.88;8.65;;;;;;;8.53;59.56;102956.28;4985493;28;97214;-70
2024/01/25 07:26:00;;;;;;;34.22;8.40;;;;;;;8.51;59.64;102955.44;4988537;28;97560;-69
2024/01/25 07:28:27;;;;;;;44.85;10.50;;;;;;;8.51;59.60;102961.69;4997469;28;97658;-70
2024/01/25 07:30:54;;;;;;;41.50;9.55;;;;;;;8.52;59.95;102965.25;4996306;28;98138;-69
2024/01/25 07:33:20;;;;;;;34.55;8.80;;;;;;;8.51;59.62;102955.44;4993023;28;97633;-70
2024/01/25 07:35:48;;;;;;;33.17;9.05;;;;;;;8.52;59.60;102965.25;5000618;28;98114;-70
2024/01/25 07:38:15;;;;;;;34.40;8.32;;;;;;;8.52;59.68;102973.28;4991000;27;98018;-69
2024/01/25 07:40:42;;;;;;;37.67;8.88;;;;;;;8.53;59.84;102969.69;4996586;28;97250;-70
2024/01/25 07:43:09;;;;;;;30.60;7.68;;;;;;;8.57;59.89;102972.22;4998047;28;97341;-70
2024/01/25 07:45:36;;;;;;;29.67;7.75;;;;;;;8.60;60.07;102969.44;5004811;28;97889;-69
2024/01/25 07:48:03;;;;;;;28.67;7.95;;;;;;;8.64;60.03;102970.25;5029049;27;97271;-70
2024/01/25 07:50:40;;;;;;;26.05;8.18;;;;;;;8.66;59.81;102976.44;4992440;28;96741;-70
2024/01/25 07:53:08;;;;;;;29.85;8.90;;;;;;;8.69;60.03;102972.78;4996102;28;96914;-70
2024/01/25 07:55:34;;;;;;;33.72;8.23;;;;;;;8.68;59.99;102979.06;5004223;28;97451;-69
2024/01/25 07:58:01;;;;;;;30.60;6.72;;;;;;;8.66;60.04;102976.44;5001609;28;97462;-70
2024/01/25 08:00:28;;;;;;;35.72;7.88;;;;;;;8.68;60.22;102977.25;4999544;28;97296;-72
2024/01/25 08:02:55;;;;;;;34.58;8.48;;;;;;;8.71;60.06;102973.63;4991382;28;97251;-69
2024/01/25 08:05:21;;;;;;;34.13;7.45;;;;;;;8.74;60.03;102968.16;4983936;28;97746;-69
2024/01/25 08:07:56;;;;;;;31.83;7.70;;;;;;;8.76;60.22;102969.88;4999474;28;98236;-70
2024/01/25 08:10:23;;;;;;;32.50;8.15;;;;;;;8.79;59.77;102975.16;4997580;28;97935;-70
2024/01/25 08:12:51;;;;;;;26.00;7.82;;;;;;;8.80;60.05;102966.19;4993414;28;97176;-70
2024/01/25 08:15:28;;;;;;;25.00;7.30;;;;;;;8.80;59.97;102973.34;4998189;28;98097;-70
2024/01/25 08:17:54;;;;;;;34.63;8.57;;;;;;;8.79;59.94;102974.25;4997709;28;97640;-70
2024/01/25 08:20:21;;;;;;;36.38;8.98;;;;;;;8.79;59.82;102987.66;5001748;28;97037;-70
2024/01/25 08:22:48;;;;;;;30.30;8.93;;;;;;;8.79;59.86;102985.88;4992024;28;97146;-70
2024/01/25 08:25:16;;;;;;;36.80;7.97;;;;;;;8.80;59.98;102992.09;4989693;28;97229;-70
2024/01/25 08:27:43;;;;;;;35.72;8.57;;;;;;;8.81;59.91;102981.34;5004730;28;97581;-70
2024/01/25 08:30:11;;;;;;;36.45;8.35;;;;;;;8.82;60.15;102982.22;4995259;28;97979;-70
2024/01/25 08:32:38;;;;;;;27.77;8.18;;;;;;;8.85;60.27;102982.13;5005622;28;97391;-70
2024/01/25 08:35:05;;;;;;;39.10;9.20;;;;;;;8.86;60.08;102981.19;5001903;28;97996;-70
2024/01/25 08:37:36;;;;;;;29.52;8.55;;;;;;;8.87;60.29;102991.88;4994634;28;97202;-70
2024/01/25 08:40:05;;;;;;;34.08;8.35;;;;;;;8.89;60.04;102994.50;4997859;28;96832;-70
2024/01/25 08:42:32;;;;;;;35.10;8.40;;;;;;;8.88;60.27;102990.94;4991780;28;97221;-70
2024/01/25 08:44:59;;;;;;;32.30;7.47;;;;;;;8.87;60.15;103004.38;4995136;28;98024;-69
2024/01/25 08:47:26;;;;;;;36.65;9.70;;;;;;;8.90;60.16;103007.84;4979991;28;97832;-70
2024/01/25 08:49:53;;;;;;;35.88;10.23;;;;;;;8.93;60.40;103011.41;5008743;28;97300;-70
2024/01/25 08:52:20;;;;;;;37.97;10.35;;;;;;;8.92;60.40;103005.16;5012889;28;97188;-70
2024/01/25 08:54:46;;;;;;;38.38;9.43;;;;;;;8.93;60.19;102998.88;5006732;28;98089;-70
2024/01/25 08:57:15;;;;;;;34.55;10.48;;;;;;;8.95;60.44;102990.78;5006333;27;98236;-69
2024/01/25 08:59:42;;;;;;;36.30;9.32;;;;;;;8.97;60.37;102997.00;4993783;28;97132;-70
2024/01/25 09:02:10;;;;;;;33.28;8.40;;;;;;;8.97;60.46;103011.25;4998061;28;97647;-70
2024/01/25 09:04:37;;;;;;;33.72;9.07;;;;;;;8.99;60.30;103012.09;4998504;28;97876;-69
2024/01/25 09:07:04;;;;;;;33.72;9.20;;;;;;;9.02;60.35;103006.66;5003885;28;98209;-70
2024/01/25 09:09:31;;;;;;;32.50;9.00;;;;;;;9.06;60.37;103007.44;5001141;28;96922;-70
2024/01/25 09:11:57;;;;;;;40.25;10.32;;;;;;;9.10;60.50;103006.41;4997161;28;97326;-70
2024/01/25 09:14:24;;;;;;;39.45;9.27;;;;;;;9.13;60.16;103007.19;5003275;28;97561;-70
2024/01/25 09:16:51;;;;;;;35.28;9.45;;;;;;;9.16;60.57;103000.84;5007392;28;98074;-70
2024/01/25 09:19:17;;;;;;;36.90;10.15;;;;;;;9.19;60.51;103017.72;4989199;28;97492;-70
2024/01/25 09:21:44;;;;;;;31.75;11.35;;;;;;;9.20;60.52;103011.44;4997423;28;97295;-69
2024/01/25 09:24:11;;;;;;;40.78;12.30;;;;;;;9.22;60.69;103016.75;5000561;28;97649;-70
2024/01/25 09:26:40;;;;;;;36.75;10.02;;;;;;;9.22;60.45;103024.81;4998853;27;97760;-70
2024/01/25 09:29:07;;;;;;;35.58;9.23;;;;;;;9.22;60.64;103027.47;5003645;28;97072;-70
2024/01/25 09:31:34;;;;;;;32.85;11.35;;;;;;;9.24;60.68;103020.25;5004641;28;97395;-70
2024/01/25 09:34:00;;;;;;;41.40;9.93;;;;;;;9.25;60.56;103024.69;5003329;28;97553;-70
2024/01/25 09:36:27;;;;;;;36.95;10.75;;;;;;;9.26;60.58;103022.91;4995662;28;97604;-70
2024/01/25 09:38:54;;;;;;;36.53;10.30;;;;;;;9.30;60.84;103022.75;4998103;28;97066;-70
2024/01/25 09:41:21;;;;;;;30.42;9.77;;;;;;;9.35;60.87;103015.44;4994168;28;97474;-70
2024/01/25 09:43:48;;;;;;;41.35;10.45;;;;;;;9.39;60.79;103014.44;4995860;28;97422;-70
2024/01/25 09:46:15;;;;;;;42.58;11.60;;;;;;;9.42;60.86;102997.34;4993199;28;97587;-70
2024/01/25 09:48:45;;;;;;;33.47;10.88;;;;;;;9.47;60.96;102990.03;4997064;28;97568;-69
2024/01/25 09:51:13;;;;;;;29.15;9.88;;;;;;;9.51;60.80;102995.25;5003027;28;97057;-69
2024/01/25 09:53:41;;;;;;;30.73;10.57;;;;;;;9.50;60.89;103004.22;4993470;28;97435;-70
2024/01/25 09:56:11;;;;;;;35.55;10.50;;;;;;;9.50;60.85;103008.72;4999404;28;97568;-70
2024/01/25 09:58:41;;;;;;;37.60;10.68;;;;;;;9.50;60.77;103011.41;4997152;28;97400;-69
2024/01/25 10:01:10;;;;;;;32.40;10.98;;;;;;;9.52;60.68;103017.59;5002051;28;97321;-69
2024/01/25 10:03:39;;;;;;;37.63;11.55;;;;;;;9.57;61.10;103007.59;5000101;28;97947;-69
2024/01/25 10:06:07;;;;;;;35.95;10.73;;;;;;;9.62;61.09;102996.72;4998962;28;97397;-70
2024/01/25 10:08:34;;;;;;;29.83;9.95;;;;;;;9.64;61.03;102992.16;4997479;28;97183;-70
2024/01/25 10:11:01;;;;;;;37.28;11.80;;;;;;;9.68;60.98;102986.69;5004196;28;97107;-70
2024/01/25 10:13:28;;;;;;;34.60;11.07;;;;;;;9.75;60.93;102971.25;5003873;28;97869;-70
2024/01/25 10:15:56;;;;;;;40.05;9.40;;;;;;;9.81;61.21;102971.94;4999109;28;97516;-70
2024/01/25 10:18:23;;;;;;;32.65;10.30;;;;;;;9.86;61.00;102963.72;4992919;28;97020;-70
2024/01/25 10:20:56;;;;;;;32.10;10.23;;;;;;;9.86;61.04;102978.00;5004967;27;97561;-69
2024/01/25 10:23:25;;;;;;;36.13;10.98;;;;;;;9.86;60.89;102979.81;5000006;28;97628;-70
2024/01/25 10:25:52;;;;;;;40.40;10.15;;;;;;;9.90;60.90;102991.31;5005008;28;97569;-70
2024/01/25 10:28:19;;;;;;;43.35;11.02;;;;;;;9.92;61.16;102984.97;4999879;28;97317;-70
2024/01/25 10:30:47;;;;;;;26.92;9.98;;;;;;;9.96;60.90;102983.06;5004030;28;96903;-70
2024/01/25 10:33:14;;;;;;;31.50;9.98;;;;;;;9.99;61.21;102965.03;4997886;28;97956;-70
2024/01/25 10:35:45;;;;;;;33.97;10.48;;;;;;;10.02;61.15;102966.75;5003686;28;97528;-70
2024/01/25 10:38:13;;;;;;;35.30;9.77;;;;;;;10.08;61.03;102986.19;4993752;28;96883;-71
2024/01/25 10:40:41;;;;;;;29.52;9.35;;;;;;;10.14;61.23;102983.31;4996685;28;97171;-70
2024/01/25 10:43:11;;;;;;;37.17;10.30;;;;;;;10.19;61.12;102977.75;4999363;28;97546;-71
2024/01/25 10:45:38;;;;;;;31.38;9.35;;;;;;;10.23;61.10;102979.44;5000395;28;97616;-71
2024/01/25 10:48:07;;;;;;;35.28;10.70;;;;;;;10.26;60.90;102975.78;4991519;28;96942;-70
2024/01/25 10:50:34;;;;;;;36.13;10.25;;;;;;;10.30;61.25;102964.88;5006756;28;97663;-70
2024/01/25 10:53:02;;;;;;;32.70;9.82;;;;;;;10.33;61.16;102963.88;5006015;28;97622;-71
2024/01/25 10:55:30;;;;;;;34.22;9.82;;;;;;;10.36;60.96;102955.72;4994964;28;97941;-71
2024/01/25 10:57:56;;;;;;;31.50;10.60;;;;;;;10.41;61.23;102973.44;4999049;28;96787;-70
2024/01/25 11:00:23;;;;;;;33.58;9.88;;;;;;;10.44;61.11;102959.91;5006670;27;97292;-70
2024/01/25 11:02:51;;;;;;;36.00;10.88;;;;;;;10.49;61.06;102962.41;5010553;28;99985;-71
2024/01/25 11:05:21;;;;;;;31.80;11.48;;;;;;;10.53;61.13;102961.38;5000558;28;97836;-70
2024/01/25 11:07:49;;;;;;;33.75;9.05;;;;;;;10.56;61.25;102949.63;5001967;28;97303;-70
2024/01/25 11:10:21;;;;;;;32.38;9.13;;;;;;;10.61;60.86;102947.66;5001669;28;96877;-70
2024/01/25 11:13:01;;;;;;;37.30;10.85;;;;;;;10.65;61.12;102952.84;4997626;28;99939;-71
2024/01/25 11:15:35;;;;;;;34.55;11.75;;;;;;;10.69;61.21;102941.03;4999643;28;97426;-71
2024/01/25 11:18:03;;;;;;;32.75;10.05;;;;;;;10.76;61.01;102933.63;5003622;28;97128;-71
2024/01/25 11:20:31;;;;;;;35.42;11.25;;;;;;;10.80;61.25;102928.06;5004907;28;96951;-71
2024/01/25 11:23:06;;;;;;;28.95;10.75;;;;;;;10.85;60.90;102924.31;5006693;28;98241;-70